createdAt,value
2024-02-05T00:04:02.011Z,81.62
2024-02-05T00:09:04.878Z,82.16
2024-02-05T00:14:06.938Z,81.64
2024-02-05T00:19:08.563Z,82.23
2024-02-05T00:24:13.891Z,82.07
2024-02-05T00:29:15.587Z,81.69
2024-02-05T00:34:17.306Z,82.42
2024-02-05T00:39:20.246Z,81.99
2024-02-05T00:44:21.870Z,82.97
2024-02-05T00:49:23.531Z,81.87
2024-02-05T00:54:26.388Z,81.90
2024-02-05T00:59:28.374Z,82.31
2024-02-05T01:04:30.016Z,82.49
2024-02-05T01:09:32.898Z,82.38
2024-02-05T01:14:34.682Z,82.46
2024-02-05T01:19:36.371Z,82.46
2024-02-05T01:24:39.269Z,82.94
2024-02-05T01:29:42.335Z,82.71
2024-02-05T01:34:43.992Z,82.35
2024-02-05T01:39:46.946Z,83.03
2024-02-05T01:44:48.568Z,83.16
2024-02-05T01:49:50.548Z,83.40
2024-02-05T01:54:53.538Z,83.59
2024-02-05T01:59:55.402Z,83.75
2024-02-05T02:04:59.280Z,83.90
2024-02-05T02:10:02.359Z,83.38
2024-02-05T02:15:04.721Z,83.80
2024-02-05T02:20:08.369Z,82.99
2024-02-05T02:25:11.498Z,83.33
2024-02-05T02:30:15.157Z,82.29
2024-02-05T02:35:25.620Z,81.95
2024-02-05T02:40:30.784Z,81.27
2024-02-05T02:45:33.773Z,81.28
2024-02-05T02:50:35.309Z,81.09
2024-02-05T02:55:38.192Z,81.10
2024-02-05T03:00:40.014Z,81.34
2024-02-05T03:05:41.723Z,82.01
2024-02-05T03:10:45.076Z,82.53
2024-02-05T03:15:46.788Z,83.88
2024-02-05T03:20:48.309Z,83.75
2024-02-05T03:25:51.325Z,85.22
2024-02-05T03:30:52.970Z,85.10
2024-02-05T03:35:54.589Z,84.77
2024-02-05T03:40:57.539Z,85.02
2024-02-05T03:45:59.115Z,85.43
2024-02-05T03:51:00.740Z,85.06
2024-02-05T03:56:03.970Z,86.21
2024-02-05T04:01:06.180Z,86.42
2024-02-05T04:06:08.003Z,86.02
2024-02-05T04:11:11.078Z,85.74
2024-02-05T04:16:15.622Z,85.60
2024-02-05T04:21:17.237Z,85.94
2024-02-05T04:26:20.284Z,85.48
2024-02-05T04:31:21.829Z,85.43
2024-02-05T04:36:23.452Z,84.78
2024-02-05T04:41:26.369Z,84.82
2024-02-05T04:46:27.981Z,85.16
2024-02-05T04:51:29.611Z,85.40
2024-02-05T04:56:32.532Z,86.19
2024-02-05T05:01:34.379Z,85.62
2024-02-05T05:06:36.076Z,86.20
2024-02-05T05:11:39.158Z,86.58
2024-02-05T05:16:40.848Z,86.49
2024-02-05T05:21:42.439Z,86.66
2024-02-05T05:26:45.415Z,87.00
2024-02-05T05:31:47.049Z,86.13
2024-02-05T05:36:48.576Z,85.72
2024-02-05T05:41:51.460Z,84.81
2024-02-05T05:46:53.068Z,85.14
2024-02-05T05:51:54.648Z,84.73
2024-02-05T05:56:57.762Z,83.99
2024-02-05T06:01:59.442Z,83.89
2024-02-05T06:07:01.142Z,84.24
2024-02-05T06:12:04.677Z,83.82
2024-02-05T06:17:06.290Z,83.00
2024-02-05T06:22:07.906Z,82.65
2024-02-05T06:27:10.818Z,82.91
2024-02-05T06:32:12.378Z,83.07
2024-02-05T06:37:14.091Z,83.08
2024-02-05T06:42:16.993Z,83.48
2024-02-05T06:47:18.509Z,82.78
2024-02-05T06:52:20.231Z,83.14
2024-02-05T06:57:23.235Z,82.78
2024-02-05T07:02:24.773Z,82.87
2024-02-05T07:07:28.813Z,83.72
2024-02-05T07:12:32.830Z,84.00
2024-02-05T07:17:35.913Z,83.70
2024-02-05T07:22:37.614Z,84.39
2024-02-05T07:27:40.551Z,83.82
2024-02-05T07:32:42.159Z,83.61
2024-02-05T07:37:43.883Z,83.12
2024-02-05T07:42:46.851Z,83.09
2024-02-05T07:47:48.455Z,83.85
2024-02-05T07:52:50.674Z,83.08
2024-02-05T07:57:53.521Z,82.48
2024-02-05T08:02:55.146Z,82.98
2024-02-05T08:07:56.712Z,82.71
2024-02-05T08:12:59.722Z,81.97
2024-02-05T08:18:01.533Z,82.01
2024-02-05T08:23:03.174Z,81.93
2024-02-05T08:28:06.814Z,81.90
2024-02-05T08:33:09.065Z,80.94
2024-02-05T08:38:10.666Z,80.29
2024-02-05T08:43:13.551Z,78.84
2024-02-05T08:48:15.160Z,78.50
2024-02-05T08:53:16.774Z,77.47
2024-02-05T08:58:19.955Z,77.03
2024-02-05T09:03:21.479Z,76.95
2024-02-05T09:08:23.009Z,75.58
2024-02-05T09:13:25.956Z,74.59
2024-02-05T09:18:27.674Z,73.61
2024-02-05T09:23:29.269Z,73.09
2024-02-05T09:28:32.260Z,72.98
2024-02-05T09:33:33.835Z,73.54
2024-02-05T09:38:35.412Z,73.80
2024-02-05T09:43:39.916Z,74.32
2024-02-05T09:48:43.788Z,74.73
2024-02-05T09:53:47.572Z,74.29
2024-02-05T09:58:50.462Z,74.69
2024-02-05T10:03:53.696Z,73.81
2024-02-05T10:09:00.670Z,73.69
2024-02-05T10:14:03.573Z,72.54
2024-02-05T10:19:05.561Z,72.45
2024-02-05T10:24:12.805Z,72.43
2024-02-05T10:29:16.517Z,73.34
2024-02-05T10:34:20.295Z,73.31
2024-02-05T10:39:23.155Z,72.83
2024-02-05T10:44:34.528Z,72.25
2024-02-05T10:49:42.638Z,72.99
2024-02-05T10:54:45.771Z,73.07
2024-02-05T10:59:48.960Z,73.71
2024-02-05T11:04:52.802Z,73.16
2024-02-05T11:09:56.010Z,73.21
2024-02-05T11:15:04.718Z,73.25
2024-02-05T11:20:11.612Z,72.64
2024-02-05T11:25:14.686Z,72.76
2024-02-05T11:30:20.172Z,72.18
2024-02-05T11:35:28.384Z,72.50
2024-02-05T11:40:32.776Z,72.62
2024-02-05T11:45:37.169Z,71.87
2024-02-05T11:50:38.875Z,70.91
2024-02-05T11:55:40.510Z,70.92
2024-02-05T12:00:43.602Z,70.30
2024-02-05T12:05:45.478Z,70.40
2024-02-05T12:10:47.512Z,69.56
2024-02-05T12:15:50.429Z,69.50
2024-02-05T12:20:58.057Z,69.22
2024-02-05T12:26:00.427Z,68.89
2024-02-05T12:31:03.362Z,69.02
2024-02-05T12:36:08.039Z,68.29
2024-02-05T12:41:10.387Z,68.07
2024-02-05T12:46:14.399Z,68.60
2024-02-05T12:51:16.464Z,68.04
2024-02-05T12:56:18.304Z,67.16
2024-02-05T13:01:21.393Z,67.69
2024-02-05T13:06:23.236Z,67.09
2024-02-05T13:11:25.319Z,67.18
2024-02-05T13:16:28.939Z,67.32
2024-02-05T13:21:30.589Z,66.50
2024-02-05T13:26:32.195Z,66.84
2024-02-05T13:31:35.204Z,66.74
2024-02-05T13:36:37.178Z,66.33
2024-02-05T13:41:38.977Z,65.92
2024-02-05T13:46:42.030Z,65.83
2024-02-05T13:51:43.697Z,65.68
2024-02-05T13:56:45.317Z,65.22
2024-02-05T14:01:48.146Z,65.56
2024-02-05T14:06:49.873Z,65.24
2024-02-05T14:11:51.476Z,65.59
2024-02-05T14:16:54.337Z,65.42
2024-02-05T14:21:55.994Z,65.07
2024-02-05T14:26:57.709Z,65.04
2024-02-05T14:32:00.532Z,64.75
2024-02-05T14:37:02.162Z,65.09
2024-02-05T14:42:04.079Z,64.43
2024-02-05T14:47:07.742Z,64.82
2024-02-05T14:52:09.245Z,64.45
2024-02-05T14:57:10.816Z,64.96
2024-02-05T15:02:14.005Z,64.91
2024-02-05T15:07:15.906Z,64.62
2024-02-05T15:12:17.524Z,64.88
2024-02-05T15:17:20.470Z,65.22
2024-02-05T15:22:23.410Z,65.46
2024-02-05T15:27:24.953Z,65.76
2024-02-05T15:32:27.916Z,66.13
2024-02-05T15:37:29.547Z,66.07
2024-02-05T15:42:31.513Z,66.77
2024-02-05T15:47:35.278Z,66.64
2024-02-05T15:52:36.990Z,66.92
2024-02-05T15:57:39.249Z,66.90
2024-02-05T16:02:42.103Z,67.51
2024-02-05T16:07:43.966Z,67.86
2024-02-05T16:12:45.537Z,68.21
2024-02-05T16:17:48.535Z,68.24
2024-02-05T16:22:50.201Z,68.92
2024-02-05T16:27:52.033Z,68.68
2024-02-05T16:32:55.085Z,68.88
2024-02-05T16:37:56.614Z,69.30
2024-02-05T16:42:58.181Z,69.05
2024-02-05T16:48:01.208Z,69.77
2024-02-05T16:53:02.927Z,69.81
2024-02-05T16:58:04.714Z,69.70
2024-02-05T17:03:07.614Z,70.33
2024-02-05T17:08:09.923Z,70.78
2024-02-05T17:13:11.524Z,71.04
2024-02-05T17:18:15.407Z,71.23
2024-02-05T17:23:17.029Z,71.09
2024-02-05T17:28:18.537Z,71.53
2024-02-05T17:33:21.679Z,72.15
2024-02-05T17:38:23.389Z,71.92
2024-02-05T17:43:24.999Z,72.44
2024-02-05T17:48:28.120Z,72.92
2024-02-05T17:53:29.816Z,72.94
2024-02-05T17:58:31.514Z,73.60
2024-02-05T18:03:34.652Z,73.92
2024-02-05T18:08:36.307Z,73.87
2024-02-05T18:13:38.031Z,73.98
2024-02-05T18:18:41.021Z,74.05
2024-02-05T18:23:42.614Z,75.14
2024-02-05T18:28:44.290Z,75.16
2024-02-05T18:33:47.259Z,75.86
2024-02-05T18:38:48.890Z,75.56
2024-02-05T18:43:50.419Z,75.65
2024-02-05T18:48:53.877Z,76.08
2024-02-05T18:53:55.483Z,76.22
2024-02-05T18:58:57.340Z,76.70
2024-02-05T19:04:00.535Z,77.20
2024-02-05T19:09:02.172Z,76.96
2024-02-05T19:14:04.580Z,77.00
2024-02-05T19:19:07.735Z,77.30
2024-02-05T19:24:09.369Z,77.56
2024-02-05T19:29:10.984Z,77.61
2024-02-05T19:34:14.032Z,77.67
2024-02-05T19:39:15.962Z,77.86
2024-02-05T19:44:17.567Z,77.88
2024-02-05T19:49:20.644Z,78.39
2024-02-05T19:54:22.287Z,77.66
2024-02-05T19:59:23.876Z,78.00
2024-02-05T20:04:27.013Z,77.73
2024-02-05T20:09:28.740Z,77.39
2024-02-05T20:14:30.389Z,77.21
2024-02-05T20:19:33.359Z,77.44
2024-02-05T20:24:35.100Z,77.78
2024-02-05T20:29:36.714Z,76.88
2024-02-05T20:34:39.939Z,76.93
2024-02-05T20:39:41.666Z,76.67
2024-02-05T20:44:43.329Z,76.48
2024-02-05T20:49:46.491Z,76.58
2024-02-05T20:54:48.268Z,76.63
2024-02-05T20:59:49.784Z,76.75
2024-02-05T21:04:52.884Z,76.70
2024-02-05T21:09:54.955Z,77.59
2024-02-05T21:14:56.580Z,76.75
2024-02-05T21:19:59.603Z,76.51
2024-02-05T21:25:01.217Z,76.60
2024-02-05T21:30:03.009Z,76.73
2024-02-05T21:35:06.759Z,76.30
2024-02-05T21:40:09.273Z,75.82
2024-02-05T21:45:11.100Z,75.94
2024-02-05T21:50:14.217Z,75.80
2024-02-05T21:55:16.124Z,75.65
2024-02-05T22:00:18.047Z,75.50
2024-02-05T22:05:21.030Z,75.20
2024-02-05T22:10:23.649Z,74.51
2024-02-05T22:15:25.305Z,74.05
2024-02-05T22:20:28.252Z,73.71
2024-02-05T22:25:29.803Z,73.54
2024-02-05T22:30:31.424Z,72.62
2024-02-05T22:35:35.515Z,72.45
2024-02-05T22:40:37.233Z,72.66
2024-02-05T22:45:38.993Z,72.29
2024-02-05T22:50:42.025Z,71.67
2024-02-05T22:55:43.687Z,71.87
2024-02-05T23:00:45.408Z,71.57
2024-02-05T23:05:48.448Z,71.79
2024-02-05T23:10:50.077Z,71.48
2024-02-05T23:15:52.894Z,71.63
2024-02-05T23:20:56.134Z,71.50
2024-02-05T23:25:57.779Z,71.19
2024-02-05T23:30:59.497Z,71.54
2024-02-05T23:36:02.480Z,71.57
2024-02-05T23:41:04.234Z,71.58
2024-02-05T23:46:06.647Z,71.71
2024-02-05T23:51:09.703Z,71.72
2024-02-05T23:56:11.313Z,72.23
